LFBG/CNG METAR and TAF weather

Enter ICAO airport designator
Station Type Date Time Source
LFBG METAR 2020/08/06 00:30 UTC NOAA

LFBG 060030Z AUTO 00000KT CAVOK 20/09 Q1015


Station Type Date Time Source
LFBG Decoded METAR 2020/08/06 00:30 UTC NOAA

Cognac, France (LFBG) 45-40N 000-19W 31M
Aug 05, 2020 - 08:30 PM EDT / 2020.08.06 0030 UTC
Wind: Calm:0
Visibility: greater than 7 mile(s):0
Temperature: 68 F (20 C)
Dew Point: 48 F (9 C)
Relative Humidity: 49%
Pressure (altimeter): 29.97 in. Hg (1015 hPa)
ob: LFBG 060030Z AUTO 00000KT CAVOK 20/09 Q1015
cycle: 0

Station Type Date Time Source
LFBG TAF 2020/08/05 15:48 UTC NOAA

TAF TAF LFBG 051440Z 0515/0615 CNL

Example: see airport list